Cap Bonavista — A8CH8 — position and weather

sailwx.info

Track history (hours):
 
Tides and Currents Weather Stations Pressure Air Temp Water Temp Dewpoint Dewpoint Depression Visibility Wind Speed Wind Dir Waves Ship Positions

Cap Bonavista

Last reported at 2014-Jul-28 03:33 UTC. Time now 2014-Jul-28 04:11 UTC.
Position N 26°08' W 078°42'.

Length 200 m; beam 29.8 m; draft 11.6 m.

Type: Ship (hazmat cat A). MMSI: 636090647.

Date/timePositionNaut miles runAvg speedWind from/ knotsBaromVisibWave heightAir tempDewpointWater temp
2014-Jul-28 03:33N 26°08' W 078°42'1515.5
2014-Jul-28 02:33N 26°12' W 078°58'1514.9
2014-Jul-28 01:33N 26°11' W 079°15'1615.7
2014-Jul-28 00:33N 26°09' W 079°32'1615.9
2014-Jul-27 23:33N 26°08' W 079°49'1414.4
2014-Jul-27 22:33N 26°06' W 080°05'2 2.0
2014-Jul-27 21:33N 26°04' W 080°07'0 0.0
2014-Jul-27 20:33N 26°04' W 080°07'0 0.0
2014-Jul-27 19:24N 26°04' W 080°07'0 0.0
2014-Jul-27 18:27N 26°04' W 080°07'0 0.0
2014-Jul-27 17:27N 26°04' W 080°07'0 0.0
2014-Jul-27 16:27N 26°04' W 080°07'0 0.0
2014-Jul-27 15:30N 26°04' W 080°07'0 0.0
2014-Jul-27 14:30N 26°04' W 080°07'0 0.0
2014-Jul-27 13:30N 26°04' W 080°07'0 0.0
2014-Jul-27 12:33N 26°04' W 080°07'0 0.0
2014-Jul-27 11:33N 26°04' W 080°07'0 0.0
2014-Jul-27 10:33N 26°04' W 080°07'0 0.0
2014-Jul-27 09:33N 26°04' W 080°07'2 2.1
2014-Jul-27 08:33N 26°06' W 080°05'1211.8
2014-Jul-27 07:33N 26°09' W 079°53'1413.8
2014-Jul-27 06:33N 26°13' W 079°38'1414.3
2014-Jul-27 05:33N 26°18' W 079°23'1515.0
2014-Jul-27 04:34N 26°23' W 079°07'1615.6
2014-Jul-27 03:34N 26°28' W 078°51'6 5.4
2014-Jul-27 02:30N 26°32' W 078°46'29 0.7
2014-Jul-25 11:19N 26°15' W 078°20'49316.8
2014-Jul-24 06:00N 21°54' W 070°42'19716.4 100 / 151018.010.8 1.527.024.325.0
2014-Jul-23 18:00N 19°30' W 068°18'18915.8 100 / 151018.010.8 1.531.027.128.0
2014-Jul-23 06:00N 16°36' W 067°00'29817.5 090 / 151016.010.8 1.527.024.325.0
2014-Jul-22 13:00N 12°48' W 063°42'13018.6 090 / 131016.127.0 1.030.027.228.0
2014-Jul-22 06:00N 11°12' W 062°12'   090 / 151015.010.8 1.527.024.325.0
Track history (hours):
 
Tides and Currents Weather Stations Pressure Air Temp Water Temp Dewpoint Dewpoint Depression Visibility Wind Speed Wind Dir Waves Ship Positions

Cap Bonavista

Last reported at 2014-Jul-28 03:33 UTC. Time now 2014-Jul-28 04:11 UTC.
Position N 26°08' W 078°42'.

Length 200 m; beam 29.8 m; draft 11.6 m.

Type: Ship (hazmat cat A). MMSI: 636090647.

Date/timePositionNaut miles runAvg speedWind from/ knotsBaromVisibWave heightAir tempDewpointWater temp
2014-Jul-28 03:33N 26°08' W 078°42'1515.5
2014-Jul-28 02:33N 26°12' W 078°58'1514.9
2014-Jul-28 01:33N 26°11' W 079°15'1615.7
2014-Jul-28 00:33N 26°09' W 079°32'1615.9
2014-Jul-27 23:33N 26°08' W 079°49'1414.4
2014-Jul-27 22:33N 26°06' W 080°05'2 2.0
2014-Jul-27 21:33N 26°04' W 080°07'0 0.0
2014-Jul-27 20:33N 26°04' W 080°07'0 0.0
2014-Jul-27 19:24N 26°04' W 080°07'0 0.0
2014-Jul-27 18:27N 26°04' W 080°07'0 0.0
2014-Jul-27 17:27N 26°04' W 080°07'0 0.0
2014-Jul-27 16:27N 26°04' W 080°07'0 0.0
2014-Jul-27 15:30N 26°04' W 080°07'0 0.0
2014-Jul-27 14:30N 26°04' W 080°07'0 0.0
2014-Jul-27 13:30N 26°04' W 080°07'0 0.0
2014-Jul-27 12:33N 26°04' W 080°07'0 0.0
2014-Jul-27 11:33N 26°04' W 080°07'0 0.0
2014-Jul-27 10:33N 26°04' W 080°07'0 0.0
2014-Jul-27 09:33N 26°04' W 080°07'2 2.1
2014-Jul-27 08:33N 26°06' W 080°05'1211.8
2014-Jul-27 07:33N 26°09' W 079°53'1413.8
2014-Jul-27 06:33N 26°13' W 079°38'1414.3
2014-Jul-27 05:33N 26°18' W 079°23'1515.0
2014-Jul-27 04:34N 26°23' W 079°07'1615.6
2014-Jul-27 03:34N 26°28' W 078°51'6 5.4
2014-Jul-27 02:30N 26°32' W 078°46'29 0.7
2014-Jul-25 11:19N 26°15' W 078°20'49316.8
2014-Jul-24 06:00N 21°54' W 070°42'19716.4 100 / 151018.010.8 1.527.024.325.0
2014-Jul-23 18:00N 19°30' W 068°18'18915.8 100 / 151018.010.8 1.531.027.128.0
2014-Jul-23 06:00N 16°36' W 067°00'29817.5 090 / 151016.010.8 1.527.024.325.0
2014-Jul-22 13:00N 12°48' W 063°42'13018.6 090 / 131016.127.0 1.030.027.228.0
2014-Jul-22 06:00N 11°12' W 062°12'   090 / 151015.010.8 1.527.024.325.0

Dump ship's entire track history